createdAt,value
2023-04-04T00:01:11.731Z,29.43
2023-04-04T00:03:44.546Z,26.07
2023-04-04T00:06:13.298Z,22.87
2023-04-04T00:08:41.626Z,25.07
2023-04-04T00:11:17.338Z,31.73
2023-04-04T00:13:47.804Z,27.70
2023-04-04T00:16:16.447Z,36.87
2023-04-04T00:18:53.977Z,48.80
2023-04-04T00:21:27.924Z,51.87
2023-04-04T00:24:00.044Z,60.00
2023-04-04T00:26:28.802Z,47.10
2023-04-04T00:28:58.241Z,50.93
2023-04-04T00:31:29.327Z,41.70
2023-04-04T00:33:57.504Z,42.13
2023-04-04T00:40:29.164Z,44.63
2023-04-04T00:43:00.862Z,35.40
2023-04-04T00:45:29.555Z,34.97
2023-04-04T00:47:59.291Z,29.87
2023-04-04T00:50:29.798Z,27.43
2023-04-04T00:53:01.558Z,29.33
2023-04-04T00:55:30.353Z,26.17
2023-04-04T00:58:01.434Z,28.60
2023-04-04T01:00:29.974Z,27.53
2023-04-04T01:03:18.732Z,25.17
2023-04-04T01:05:47.382Z,25.30
2023-04-04T01:08:20.346Z,25.63
2023-04-04T01:10:49.295Z,25.43
2023-04-04T01:13:18.071Z,24.00
2023-04-04T01:15:46.294Z,27.03
2023-04-04T01:18:20.947Z,31.90
2023-04-04T01:20:59.754Z,28.23
2023-04-04T01:23:37.459Z,28.77
2023-04-04T01:26:08.419Z,25.97
2023-04-04T01:28:36.597Z,28.97
2023-04-04T01:31:07.518Z,31.87
2023-04-04T01:33:43.958Z,29.97
2023-04-04T01:36:33.218Z,29.90
2023-04-04T01:39:23.707Z,28.97
2023-04-04T01:41:52.650Z,27.50
2023-04-04T01:44:21.002Z,26.10
2023-04-04T01:46:55.351Z,29.87
2023-04-04T01:49:25.615Z,30.90
2023-04-04T01:51:59.354Z,31.10
2023-04-04T01:54:28.840Z,30.57
2023-04-04T01:56:58.437Z,34.60
2023-04-04T01:59:26.983Z,33.50
2023-04-04T02:01:55.476Z,33.77
2023-04-04T02:04:23.828Z,34.97
2023-04-04T02:06:59.651Z,31.43
2023-04-04T02:09:28.462Z,35.67
2023-04-04T02:12:00.341Z,27.80
2023-04-04T02:14:32.582Z,29.10
2023-04-04T02:17:01.243Z,34.63
2023-04-04T02:19:30.142Z,34.10
2023-04-04T02:22:01.697Z,27.13
2023-04-04T02:24:30.153Z,26.60
2023-04-04T02:26:58.309Z,24.80
2023-04-04T02:29:31.708Z,29.20
2023-04-04T02:32:00.161Z,29.87
2023-04-04T02:34:28.366Z,33.60
2023-04-04T02:36:56.810Z,32.53
2023-04-04T02:39:28.034Z,28.90
2023-04-04T02:41:57.871Z,27.37
2023-04-04T02:44:26.271Z,32.10
2023-04-04T02:46:56.699Z,33.83
2023-04-04T02:49:26.972Z,39.77
2023-04-04T02:51:55.295Z,33.10
2023-04-04T02:54:23.708Z,33.33
2023-04-04T02:56:53.082Z,39.77
2023-04-04T02:59:21.990Z,37.50
2023-04-04T03:01:50.756Z,33.00
2023-04-04T03:04:21.850Z,32.93
2023-04-04T03:06:50.638Z,39.17
2023-04-04T03:09:19.451Z,37.73
2023-04-04T03:11:52.243Z,42.67
2023-04-04T03:14:27.088Z,42.53
2023-04-04T03:16:57.679Z,40.07
2023-04-04T03:19:26.402Z,45.73
2023-04-04T03:21:54.807Z,53.73
2023-04-04T03:24:26.719Z,51.40
2023-04-04T03:26:57.668Z,50.57
2023-04-04T03:29:26.653Z,53.27
2023-04-04T03:31:55.176Z,63.23
2023-04-04T03:34:25.172Z,59.17
2023-04-04T03:36:54.313Z,60.93
2023-04-04T03:39:28.265Z,56.57
2023-04-04T03:42:00.370Z,56.93
2023-04-04T03:44:28.657Z,53.23
2023-04-04T03:46:58.447Z,48.83
2023-04-04T03:49:28.328Z,43.53
2023-04-04T03:52:00.595Z,48.77
2023-04-04T03:54:29.857Z,46.60
2023-04-04T03:57:05.424Z,43.00
2023-04-04T03:59:35.503Z,44.40
2023-04-04T04:02:06.110Z,40.50
2023-04-04T04:04:34.414Z,41.10
2023-04-04T04:07:03.071Z,46.63
2023-04-04T04:09:31.585Z,36.27
2023-04-04T04:12:02.211Z,35.17
2023-04-04T04:14:31.311Z,35.83
2023-04-04T04:16:59.913Z,39.37
2023-04-04T04:19:28.307Z,37.40
2023-04-04T04:21:56.644Z,35.70
2023-04-04T04:24:24.694Z,30.87
2023-04-04T04:26:52.870Z,31.73
2023-04-04T04:29:25.852Z,39.20
2023-04-04T04:31:54.115Z,37.50
2023-04-04T04:34:22.462Z,38.17
2023-04-04T04:36:53.081Z,42.17
2023-04-04T04:39:26.383Z,38.27
2023-04-04T04:41:54.882Z,38.60
2023-04-04T04:44:25.074Z,37.87
2023-04-04T04:46:54.023Z,36.23
2023-04-04T04:49:23.719Z,40.57
2023-04-04T04:51:55.277Z,40.20
2023-04-04T04:54:25.047Z,42.20
2023-04-04T04:56:57.511Z,37.53
2023-04-04T04:59:28.986Z,47.70
2023-04-04T05:02:00.824Z,36.23
2023-04-04T05:04:29.999Z,35.07
2023-04-04T05:06:58.207Z,35.43
2023-04-04T05:09:36.280Z,35.17
2023-04-04T05:12:04.830Z,34.60
2023-04-04T05:14:32.867Z,33.00
2023-04-04T05:17:02.548Z,33.73
2023-04-04T05:19:31.933Z,34.23
2023-04-04T05:22:00.739Z,34.23
2023-04-04T05:24:47.109Z,33.77
2023-04-04T05:27:15.218Z,34.20
2023-04-04T05:29:47.138Z,27.47
2023-04-04T05:32:22.188Z,28.63
2023-04-04T05:34:51.025Z,34.57
2023-04-04T05:37:21.453Z,30.93
2023-04-04T05:39:52.621Z,39.53
2023-04-04T05:42:20.822Z,33.70
2023-04-04T05:44:48.969Z,33.47
2023-04-04T05:47:18.035Z,35.57
2023-04-04T05:49:46.563Z,32.27
2023-04-04T05:52:21.745Z,35.97
2023-04-04T05:54:50.020Z,35.87
2023-04-04T05:57:18.183Z,36.77
2023-04-04T05:59:51.579Z,34.97
2023-04-04T06:02:21.432Z,36.67
2023-04-04T06:04:52.663Z,38.70
2023-04-04T06:07:21.385Z,36.27
2023-04-04T06:09:49.735Z,33.67
2023-04-04T06:12:17.987Z,36.00
2023-04-04T06:14:47.489Z,37.93
2023-04-04T06:17:19.393Z,38.03
2023-04-04T06:19:50.486Z,35.03
2023-04-04T06:22:19.230Z,35.13
2023-04-04T06:24:47.558Z,37.33
2023-04-04T06:27:22.079Z,34.00
2023-04-04T06:29:50.468Z,33.77
2023-04-04T06:32:18.864Z,40.13
2023-04-04T06:34:47.702Z,33.47
2023-04-04T06:37:15.989Z,36.60
2023-04-04T06:39:45.801Z,35.13
2023-04-04T06:42:14.314Z,36.60
2023-04-04T06:44:42.808Z,34.87
2023-04-04T06:47:11.177Z,39.23
2023-04-04T06:49:39.134Z,32.93
2023-04-04T06:52:10.092Z,36.20
2023-04-04T06:54:38.923Z,31.63
2023-04-04T06:57:07.840Z,33.40
2023-04-04T06:59:39.975Z,41.47
2023-04-04T07:02:08.375Z,29.93
2023-04-04T07:04:46.625Z,35.33
2023-04-04T07:07:15.250Z,31.40
2023-04-04T07:09:43.929Z,32.37
2023-04-04T07:12:12.254Z,28.03
2023-04-04T07:14:40.631Z,36.80
2023-04-04T07:17:21.316Z,35.10
2023-04-04T07:19:52.359Z,29.27
2023-04-04T07:22:20.598Z,30.90
2023-04-04T07:24:49.460Z,31.57
2023-04-04T07:27:18.592Z,29.93
2023-04-04T07:29:47.144Z,29.17
2023-04-04T07:32:16.069Z,29.43
2023-04-04T07:35:02.444Z,25.93
2023-04-04T07:37:30.748Z,25.37
2023-04-04T07:40:00.429Z,28.60
2023-04-04T07:42:28.619Z,31.37
2023-04-04T07:44:57.400Z,27.00
2023-04-04T07:47:26.380Z,31.27
2023-04-04T07:49:54.765Z,27.23
2023-04-04T07:52:23.171Z,28.27
2023-04-04T07:54:53.104Z,31.60
2023-04-04T07:57:23.913Z,26.33
2023-04-04T07:59:58.828Z,28.30
2023-04-04T08:02:31.891Z,26.80
2023-04-04T08:05:00.047Z,32.37
2023-04-04T08:07:30.400Z,29.73
2023-04-04T08:10:00.924Z,27.43
2023-04-04T08:12:29.677Z,29.70
2023-04-04T08:14:57.887Z,30.93
2023-04-04T08:17:27.875Z,28.53
2023-04-04T08:19:59.191Z,32.63
2023-04-04T08:22:27.487Z,29.20
2023-04-04T08:24:57.362Z,29.07
2023-04-04T08:27:28.141Z,24.57
2023-04-04T08:29:59.191Z,25.43
2023-04-04T08:32:27.350Z,27.33
2023-04-04T08:34:57.008Z,20.10
2023-04-04T08:37:25.415Z,18.73
2023-04-04T08:39:56.566Z,21.47
2023-04-04T08:42:25.795Z,19.03
2023-04-04T08:44:55.627Z,21.07
2023-04-04T08:47:25.026Z,19.27
2023-04-04T08:49:54.885Z,14.00
2023-04-04T08:52:26.145Z,12.60
2023-04-04T08:54:54.664Z,14.33
2023-04-04T08:57:22.721Z,15.40
2023-04-04T08:59:50.821Z,6.20
2023-04-04T09:02:30.317Z,6.87
2023-04-04T09:05:06.304Z,4.50
2023-04-04T09:07:38.842Z,2.47
2023-04-04T09:10:13.402Z,3.00
2023-04-04T09:12:45.264Z,4.40
2023-04-04T09:15:14.466Z,6.30
2023-04-04T09:17:42.997Z,4.30
2023-04-04T09:20:39.091Z,8.17
2023-04-04T09:23:16.189Z,16.50
2023-04-04T09:28:24.804Z,10.47
2023-04-04T09:30:53.264Z,18.10
2023-04-04T09:33:24.533Z,13.27
2023-04-04T09:35:56.937Z,17.73
2023-04-04T09:38:29.722Z,23.17
2023-04-04T09:40:58.292Z,19.43
2023-04-04T09:43:31.229Z,17.00
2023-04-04T09:46:02.111Z,16.93
2023-04-04T09:48:37.302Z,19.17
2023-04-04T09:51:07.186Z,23.47
2023-04-04T09:53:37.574Z,12.63
2023-04-04T09:56:07.720Z,19.23
2023-04-04T09:58:46.370Z,19.87
2023-04-04T10:01:18.347Z,17.73
2023-04-04T10:04:00.228Z,20.47
2023-04-04T10:06:28.512Z,13.13
2023-04-04T10:09:00.360Z,11.73
2023-04-04T10:11:34.412Z,12.07
2023-04-04T10:14:05.505Z,11.50
2023-04-04T10:16:38.756Z,9.90
2023-04-04T10:19:08.095Z,10.07
2023-04-04T10:21:43.902Z,8.40
2023-04-04T10:24:14.054Z,11.27
2023-04-04T10:26:45.294Z,13.50
2023-04-04T10:29:13.432Z,9.23
2023-04-04T10:31:48.118Z,10.47
2023-04-04T10:34:27.136Z,14.47
2023-04-04T10:37:07.565Z,10.90
2023-04-04T10:39:41.440Z,9.50
2023-04-04T10:42:11.356Z,11.63
2023-04-04T10:44:42.960Z,22.83
2023-04-04T10:47:23.723Z,23.53
2023-04-04T10:49:55.432Z,18.57
2023-04-04T10:52:28.581Z,17.67
2023-04-04T10:54:59.725Z,15.27
2023-04-04T10:57:29.195Z,12.60
2023-04-04T11:00:27.010Z,10.43
2023-04-04T11:03:02.373Z,17.10
2023-04-04T11:05:41.355Z,18.37
2023-04-04T11:08:11.214Z,12.10
2023-04-04T11:10:43.572Z,15.90
2023-04-04T11:13:18.626Z,13.20
2023-04-04T11:16:15.799Z,13.10
2023-04-04T11:18:51.117Z,14.33
2023-04-04T11:21:24.191Z,12.60
2023-04-04T11:23:55.173Z,11.50
2023-04-04T11:26:29.267Z,12.70
2023-04-04T11:29:01.816Z,12.40
2023-04-04T11:31:34.979Z,10.37
2023-04-04T11:34:14.246Z,11.63
2023-04-04T11:36:45.669Z,12.93
2023-04-04T11:39:15.962Z,20.47
2023-04-04T11:42:17.001Z,21.07
2023-04-04T11:44:55.252Z,11.93
2023-04-04T11:47:26.025Z,14.03
2023-04-04T11:49:55.196Z,11.60
2023-04-04T11:52:26.561Z,12.43
2023-04-04T11:54:55.123Z,17.07
2023-04-04T11:57:23.426Z,12.70
2023-04-04T11:59:52.817Z,15.63
2023-04-04T12:02:27.995Z,19.27
2023-04-04T12:04:56.773Z,13.67
2023-04-04T12:07:29.510Z,14.37
2023-04-04T12:09:58.136Z,13.03
2023-04-04T12:12:29.571Z,13.40
2023-04-04T12:15:06.715Z,10.73
2023-04-04T12:17:44.653Z,10.57
2023-04-04T12:20:16.529Z,12.10
2023-04-04T12:22:47.187Z,11.60
2023-04-04T12:25:15.723Z,13.80
2023-04-04T12:27:45.590Z,12.63
2023-04-04T12:30:16.906Z,15.47
2023-04-04T12:32:46.581Z,13.07
2023-04-04T12:35:19.096Z,11.30
2023-04-04T12:38:07.709Z,11.87
2023-04-04T12:40:40.976Z,13.80
2023-04-04T12:43:10.648Z,11.63
2023-04-04T12:45:43.385Z,15.87
2023-04-04T12:48:18.229Z,11.63
2023-04-04T12:50:57.273Z,11.63
2023-04-04T12:53:30.475Z,12.90
2023-04-04T12:56:03.935Z,9.50
2023-04-04T12:58:37.124Z,7.97
2023-04-04T13:01:07.024Z,8.70
2023-04-04T13:03:38.337Z,6.60
2023-04-04T13:06:16.712Z,6.43
2023-04-04T13:08:54.280Z,7.50
2023-04-04T13:11:22.902Z,7.77
2023-04-04T13:14:01.621Z,6.20
2023-04-04T13:16:37.850Z,6.20
2023-04-04T13:19:07.735Z,6.20
2023-04-04T13:21:36.151Z,6.80
2023-04-04T13:24:05.170Z,5.37
2023-04-04T13:26:34.253Z,5.23
2023-04-04T13:29:02.312Z,5.93
2023-04-04T13:31:35.454Z,5.87
2023-04-04T13:34:04.688Z,5.97
2023-04-04T13:36:33.291Z,7.30
2023-04-04T13:39:02.482Z,5.50
2023-04-04T13:41:57.801Z,9.27
2023-04-04T13:44:29.195Z,6.17
2023-04-04T13:47:01.618Z,6.30
2023-04-04T13:49:29.969Z,5.73
2023-04-04T13:52:01.658Z,4.87
2023-04-04T13:54:33.558Z,4.60
2023-04-04T13:57:02.215Z,4.60
2023-04-04T13:59:33.161Z,4.57
2023-04-04T14:02:04.360Z,5.87
2023-04-04T14:04:34.805Z,6.00
2023-04-04T14:07:03.338Z,6.07
2023-04-04T14:09:31.578Z,5.37
2023-04-04T14:12:01.910Z,6.03
2023-04-04T14:14:31.309Z,4.43
2023-04-04T14:17:06.201Z,6.97
2023-04-04T14:19:39.688Z,4.90
2023-04-04T14:22:11.306Z,6.50
2023-04-04T14:24:40.755Z,3.90
2023-04-04T14:27:09.192Z,4.33
2023-04-04T14:29:38.780Z,5.57
2023-04-04T14:32:06.793Z,7.83
2023-04-04T14:34:35.520Z,5.33
2023-04-04T14:37:05.251Z,4.97
2023-04-04T14:39:33.969Z,3.60
2023-04-04T14:42:02.628Z,6.20
2023-04-04T14:44:32.355Z,4.77
2023-04-04T14:47:01.491Z,4.17
2023-04-04T14:49:32.919Z,4.30
2023-04-04T14:52:02.350Z,7.97
2023-04-04T14:54:31.207Z,11.87
2023-04-04T14:56:59.287Z,5.90
2023-04-04T14:59:27.649Z,5.97
2023-04-04T15:01:55.607Z,5.70
2023-04-04T15:04:24.091Z,4.97
2023-04-04T15:06:54.116Z,8.17
2023-04-04T15:09:25.061Z,38.43
2023-04-04T15:12:02.108Z,6.50
2023-04-04T15:14:32.908Z,7.90
2023-04-04T15:17:04.470Z,7.67
2023-04-04T15:19:40.970Z,5.30
2023-04-04T15:22:13.168Z,6.03
2023-04-04T15:24:41.594Z,6.73
2023-04-04T15:27:12.674Z,8.33
2023-04-04T15:29:43.058Z,6.50
2023-04-04T15:32:11.785Z,6.80
2023-04-04T15:34:41.593Z,8.43
2023-04-04T15:37:10.699Z,7.67
2023-04-04T15:39:52.220Z,7.80
2023-04-04T15:42:21.654Z,7.13
2023-04-04T15:44:49.713Z,6.77
2023-04-04T15:47:18.201Z,9.17
2023-04-04T15:49:49.447Z,7.17
2023-04-04T15:52:17.690Z,9.57
2023-04-04T15:54:49.659Z,12.53
2023-04-04T15:57:20.370Z,10.03
2023-04-04T15:59:54.795Z,9.70
2023-04-04T16:02:23.329Z,10.97
2023-04-04T16:04:51.859Z,8.63
2023-04-04T16:07:22.266Z,10.67
2023-04-04T16:09:51.448Z,12.63
2023-04-04T16:12:20.477Z,8.53
2023-04-04T16:14:49.368Z,14.73
2023-04-04T16:17:21.060Z,10.53
2023-04-04T16:19:50.536Z,10.37
2023-04-04T16:22:19.209Z,13.03
2023-04-04T16:24:50.419Z,14.33
2023-04-04T16:27:18.761Z,10.60
2023-04-04T16:29:47.526Z,12.60
2023-04-04T16:32:17.521Z,11.20
2023-04-04T16:34:45.813Z,14.70
2023-04-04T16:37:20.559Z,11.53
2023-04-04T16:39:51.326Z,13.83
2023-04-04T16:42:20.030Z,12.53
2023-04-04T16:44:59.444Z,14.47
2023-04-04T16:47:29.277Z,15.33
2023-04-04T16:49:57.435Z,14.73
2023-04-04T16:52:29.021Z,18.43
2023-04-04T16:55:00.114Z,13.07
2023-04-04T16:57:35.534Z,15.50
2023-04-04T17:00:13.059Z,12.03
2023-04-04T17:03:01.169Z,18.00
2023-04-04T17:05:29.836Z,13.70
2023-04-04T17:08:00.852Z,13.80
2023-04-04T17:10:29.264Z,11.00
2023-04-04T17:13:01.168Z,12.07
2023-04-04T17:15:30.119Z,11.47
2023-04-04T17:17:58.565Z,17.20
2023-04-04T17:20:34.186Z,14.03
2023-04-04T17:23:05.417Z,11.57
2023-04-04T17:25:33.524Z,13.03
2023-04-04T17:28:02.824Z,10.27
2023-04-04T17:30:31.558Z,10.53
2023-04-04T17:33:02.434Z,12.13
2023-04-04T17:35:33.761Z,11.40
2023-04-04T17:38:08.397Z,10.33
2023-04-04T17:40:36.787Z,11.53
2023-04-04T17:43:07.331Z,13.23
2023-04-04T17:45:35.584Z,10.47
2023-04-04T17:48:04.358Z,10.60
2023-04-04T17:50:33.067Z,10.83
2023-04-04T17:53:05.807Z,11.23
2023-04-04T17:55:34.187Z,10.27
2023-04-04T17:58:02.796Z,11.83
2023-04-04T18:00:31.634Z,10.67
2023-04-04T18:03:00.908Z,10.53
2023-04-04T18:05:42.874Z,10.50
2023-04-04T18:08:11.454Z,11.47
2023-04-04T18:10:42.093Z,10.50
2023-04-04T18:13:11.934Z,10.83
2023-04-04T18:15:43.364Z,13.70
2023-04-04T18:18:12.695Z,12.67
2023-04-04T18:20:41.530Z,12.07
2023-04-04T18:23:10.311Z,11.80
2023-04-04T18:25:43.146Z,11.90
2023-04-04T18:28:13.439Z,11.87
2023-04-04T18:30:41.820Z,12.43
2023-04-04T18:33:11.855Z,15.43
2023-04-04T18:35:42.770Z,14.43
2023-04-04T18:38:13.276Z,12.97
2023-04-04T18:40:42.178Z,12.67
2023-04-04T18:43:10.689Z,16.90
2023-04-04T18:45:41.865Z,16.27
2023-04-04T18:48:12.439Z,12.47
2023-04-04T18:50:43.750Z,14.00
2023-04-04T18:53:12.330Z,13.53
2023-04-04T18:55:43.658Z,15.30
2023-04-04T18:58:13.012Z,14.50
2023-04-04T19:00:42.224Z,18.07
2023-04-04T19:03:13.285Z,17.50
2023-04-04T19:05:47.908Z,16.43
2023-04-04T19:08:17.741Z,19.07
2023-04-04T19:10:51.399Z,23.63
2023-04-04T19:13:21.520Z,24.50
2023-04-04T19:15:50.135Z,21.27
2023-04-04T19:18:18.936Z,23.23
2023-04-04T19:20:47.235Z,21.60
2023-04-04T19:23:15.901Z,20.47
2023-04-04T19:25:47.481Z,21.07
2023-04-04T19:28:15.741Z,19.87
2023-04-04T19:30:49.944Z,20.17
2023-04-04T19:33:21.973Z,21.23
2023-04-04T19:36:22.457Z,16.33
2023-04-04T19:38:58.151Z,18.97
2023-04-04T19:41:45.108Z,18.67
2023-04-04T19:44:19.999Z,19.13
2023-04-04T19:46:50.268Z,19.13
2023-04-04T19:49:23.576Z,17.33
2023-04-04T19:51:56.289Z,16.30
2023-04-04T19:54:34.533Z,14.70
2023-04-04T19:57:07.388Z,16.30
2023-04-04T20:00:23.032Z,16.20
2023-04-04T20:02:56.309Z,18.27
2023-04-04T20:05:47.840Z,16.43
2023-04-04T20:08:19.626Z,19.60
2023-04-04T20:10:48.039Z,20.27
2023-04-04T20:13:19.357Z,17.53
2023-04-04T20:15:49.895Z,17.30
2023-04-04T20:18:22.710Z,16.47
2023-04-04T20:21:06.854Z,18.80
2023-04-04T20:23:59.254Z,17.70
2023-04-04T20:26:36.697Z,16.27
2023-04-04T20:29:14.663Z,20.30
2023-04-04T20:31:47.829Z,19.33
2023-04-04T20:34:38.982Z,18.53
2023-04-04T20:37:22.114Z,17.00
2023-04-04T20:40:03.269Z,17.50
2023-04-04T20:42:42.671Z,18.73
2023-04-04T20:45:16.269Z,24.63
2023-04-04T20:47:50.148Z,22.30
2023-04-04T20:50:21.547Z,17.60
2023-04-04T20:52:57.116Z,18.77
2023-04-04T20:55:33.506Z,16.57
2023-04-04T20:58:10.022Z,18.53
2023-04-04T21:00:43.338Z,20.47
2023-04-04T21:03:37.173Z,18.00
2023-04-04T21:06:16.856Z,16.23
2023-04-04T21:08:49.921Z,22.33
2023-04-04T21:11:30.916Z,17.30
2023-04-04T21:13:59.617Z,16.00
2023-04-04T21:16:31.057Z,20.70
2023-04-04T21:19:02.015Z,20.33
2023-04-04T21:21:32.219Z,24.63
2023-04-04T21:24:10.882Z,37.10
2023-04-04T21:26:44.055Z,35.80
2023-04-04T21:29:23.658Z,34.70
2023-04-04T21:31:55.811Z,28.90
2023-04-04T21:34:26.568Z,32.80
2023-04-04T21:37:01.526Z,30.90
2023-04-04T21:39:31.144Z,29.27
2023-04-04T21:42:01.863Z,21.63
2023-04-04T21:44:31.357Z,18.13
2023-04-04T21:46:59.628Z,18.73
2023-04-04T21:49:28.597Z,18.07
2023-04-04T21:51:58.033Z,19.23
2023-04-04T21:54:27.936Z,18.73
2023-04-04T21:56:57.407Z,18.93
2023-04-04T21:59:28.565Z,20.43
2023-04-04T22:02:02.434Z,19.07
2023-04-04T22:04:31.693Z,17.90
2023-04-04T22:06:59.822Z,19.23
2023-04-04T22:09:48.228Z,17.27
2023-04-04T22:12:20.049Z,17.37
2023-04-04T22:14:51.103Z,17.30
2023-04-04T22:17:23.346Z,18.30
2023-04-04T22:20:03.414Z,18.47
2023-04-04T22:22:32.803Z,18.80
2023-04-04T22:25:07.757Z,21.70
2023-04-04T22:27:38.566Z,17.47
2023-04-04T22:30:10.217Z,20.90
2023-04-04T22:32:39.623Z,18.13
2023-04-04T22:35:08.158Z,18.03
2023-04-04T22:37:39.082Z,22.30
2023-04-04T22:40:13.997Z,18.63
2023-04-04T22:42:42.118Z,20.70
2023-04-04T22:45:13.566Z,20.83
2023-04-04T22:47:47.659Z,20.67
2023-04-04T22:50:27.453Z,21.17
2023-04-04T22:52:56.366Z,22.30
2023-04-04T22:55:26.724Z,19.70
2023-04-04T22:57:58.004Z,20.17
2023-04-04T23:00:26.469Z,18.47
2023-04-04T23:03:14.473Z,21.03
2023-04-04T23:05:45.937Z,21.50
2023-04-04T23:08:14.457Z,22.43
2023-04-04T23:10:43.076Z,21.60
2023-04-04T23:13:12.108Z,23.87
2023-04-04T23:15:41.674Z,22.13
2023-04-04T23:18:11.097Z,22.47
2023-04-04T23:20:39.610Z,25.97
2023-04-04T23:23:07.881Z,24.20
2023-04-04T23:25:35.769Z,22.80
2023-04-04T23:28:04.005Z,25.43
2023-04-04T23:30:32.762Z,25.83
2023-04-04T23:33:05.400Z,24.30
2023-04-04T23:35:35.144Z,23.23
2023-04-04T23:38:03.424Z,25.90
2023-04-04T23:40:32.482Z,24.57
2023-04-04T23:43:03.569Z,27.00
2023-04-04T23:45:37.627Z,24.00
2023-04-04T23:48:06.649Z,23.43
2023-04-04T23:50:35.144Z,22.77
2023-04-04T23:53:04.201Z,30.30
2023-04-04T23:55:33.176Z,30.07
2023-04-04T23:58:03.719Z,25.60
